DAP235 SAWC-SCCI
Flight info
| Callsign | DAP235 |
|---|---|
| Flight time | 0h 36m |
| Altitude | 21000 |
| Route | MUNER2C MUNER MUNER2E |
| Aircraft | RJ1H/M-SDFGIRWY/LB1 |
Departure
| Time | 2026-04-21 20:42 |
|---|---|
| Airport | El Calafate - Commander Armando Tola International Airport (SAWC) |
Arrival
| Time | 2026-04-21 21:18 |
|---|---|
| Airport | President Carlos Ibáñez International Airport (SCCI) |
| Time | Latitude | Longitude | Altitude | Speed | Heading |
|---|---|---|---|---|---|
| 2026-04-21 20:17 | -50.28340 | -72.05385 | 643 ft | 0 kts | 175° |
| 2026-04-21 20:17 | -50.28345 | -72.05516 | 645 ft | 0 kts | 175° |
| 2026-04-21 20:25 | -50.28335 | -72.05517 | 643 ft | 4 kts | 175° |
| 2026-04-21 20:25 | -50.28308 | -72.05521 | 644 ft | 4 kts | 175° |
| 2026-04-21 20:25 | -50.28284 | -72.05529 | 644 ft | 4 kts | 150° |
| 2026-04-21 20:26 | -50.28270 | -72.05559 | 645 ft | 4 kts | 94° |
| 2026-04-21 20:26 | -50.28270 | -72.05576 | 645 ft | 1 kts | 84° |
| 2026-04-21 20:33 | -50.28269 | -72.05558 | 645 ft | 5 kts | 84° |
| 2026-04-21 20:33 | -50.28264 | -72.05476 | 643 ft | 8 kts | 84° |
| 2026-04-21 20:33 | -50.28245 | -72.05411 | 644 ft | 6 kts | 33° |
| 2026-04-21 20:34 | -50.28208 | -72.05399 | 643 ft | 5 kts | 354° |
| 2026-04-21 20:34 | -50.28170 | -72.05407 | 643 ft | 7 kts | 353° |
| 2026-04-21 20:34 | -50.28123 | -72.05413 | 643 ft | 3 kts | 356° |
| 2026-04-21 20:34 | -50.28118 | -72.05413 | 643 ft | 0 kts | 356° |
| 2026-04-21 20:38 | -50.28115 | -72.05413 | 643 ft | 2 kts | 356° |
| 2026-04-21 20:38 | -50.28084 | -72.05416 | 643 ft | 8 kts | 357° |
| 2026-04-21 20:39 | -50.28028 | -72.05373 | 643 ft | 13 kts | 74° |
| 2026-04-21 20:39 | -50.28013 | -72.05192 | 643 ft | 20 kts | 84° |
| 2026-04-21 20:39 | -50.27998 | -72.04943 | 645 ft | 25 kts | 84° |
| 2026-04-21 20:39 | -50.27979 | -72.04640 | 644 ft | 31 kts | 84° |
| 2026-04-21 20:40 | -50.27960 | -72.04317 | 643 ft | 29 kts | 85° |
| 2026-04-21 20:40 | -50.27941 | -72.04005 | 641 ft | 29 kts | 84° |
| 2026-04-21 20:40 | -50.27934 | -72.03763 | 641 ft | 17 kts | 104° |
| 2026-04-21 20:40 | -50.27965 | -72.03605 | 642 ft | 12 kts | 84° |
| 2026-04-21 20:41 | -50.27932 | -72.03567 | 643 ft | 5 kts | 344° |
| 2026-04-21 20:41 | -50.27917 | -72.03607 | 643 ft | 4 kts | 271° |
| 2026-04-21 20:41 | -50.27918 | -72.03620 | 643 ft | 0 kts | 264° |
| 2026-04-21 20:41 | -50.27933 | -72.03836 | 641 ft | 48 kts | 264° |
| 2026-04-21 20:42 | -50.27982 | -72.04670 | 646 ft | 106 kts | 264° |
| 2026-04-21 20:42 | -50.28064 | -72.06004 | 878 ft | 127 kts | 262° |
| 2026-04-21 20:42 | -50.28110 | -72.07390 | 1495 ft | 127 kts | 266° |
| 2026-04-21 20:42 | -50.28162 | -72.08792 | 2033 ft | 133 kts | 276° |
| 2026-04-21 20:43 | -50.28211 | -72.10245 | 2589 ft | 134 kts | 276° |
| 2026-04-21 20:43 | -50.28273 | -72.11720 | 3084 ft | 141 kts | 274° |
| 2026-04-21 20:43 | -50.28360 | -72.13276 | 3505 ft | 149 kts | 274° |
| 2026-04-21 20:43 | -50.28462 | -72.14973 | 3869 ft | 168 kts | 271° |
| 2026-04-21 20:44 | -50.28583 | -72.16947 | 4018 ft | 198 kts | 271° |
| 2026-04-21 20:44 | -50.28730 | -72.19229 | 4102 ft | 224 kts | 270° |
| 2026-04-21 20:44 | -50.28890 | -72.21807 | 4255 ft | 248 kts | 270° |
| 2026-04-21 20:44 | -50.29073 | -72.24554 | 4642 ft | 255 kts | 267° |
| 2026-04-21 20:45 | -50.29247 | -72.27336 | 5087 ft | 258 kts | 267° |
| 2026-04-21 20:45 | -50.29439 | -72.30085 | 5566 ft | 258 kts | 267° |
| 2026-04-21 20:45 | -50.29634 | -72.32866 | 6037 ft | 257 kts | 268° |
| 2026-04-21 20:45 | -50.29819 | -72.35649 | 6514 ft | 257 kts | 268° |
| 2026-04-21 20:46 | -50.29992 | -72.38419 | 7053 ft | 256 kts | 269° |
| 2026-04-21 20:46 | -50.30460 | -72.41115 | 7631 ft | 267 kts | 244° |
| 2026-04-21 20:46 | -50.31852 | -72.43155 | 8222 ft | 285 kts | 218° |
| 2026-04-21 20:46 | -50.33603 | -72.44681 | 8854 ft | 290 kts | 216° |
| 2026-04-21 20:47 | -50.35404 | -72.46160 | 9511 ft | 294 kts | 216° |
| 2026-04-21 20:47 | -50.37212 | -72.47629 | 10111 ft | 299 kts | 217° |
| 2026-04-21 20:47 | -50.39073 | -72.49130 | 10731 ft | 307 kts | 212° |
| 2026-04-21 20:47 | -50.41246 | -72.49744 | 11346 ft | 333 kts | 182° |
| 2026-04-21 20:48 | -50.43531 | -72.48772 | 11915 ft | 351 kts | 155° |
| 2026-04-21 20:48 | -50.45569 | -72.46581 | 12519 ft | 359 kts | 142° |
| 2026-04-21 20:48 | -50.47543 | -72.44095 | 12889 ft | 370 kts | 141° |
| 2026-04-21 20:48 | -50.49582 | -72.41542 | 13310 ft | 377 kts | 142° |
| 2026-04-21 20:49 | -50.51688 | -72.38995 | 13653 ft | 387 kts | 143° |
| 2026-04-21 20:49 | -50.53880 | -72.36467 | 13945 ft | 395 kts | 145° |
| 2026-04-21 20:49 | -50.56152 | -72.33943 | 14111 ft | 406 kts | 146° |
| 2026-04-21 20:49 | -50.58511 | -72.31406 | 14247 ft | 415 kts | 147° |
| 2026-04-21 20:50 | -50.60900 | -72.28866 | 14376 ft | 425 kts | 147° |
| 2026-04-21 20:50 | -50.63368 | -72.26241 | 14650 ft | 430 kts | 146° |
| 2026-04-21 20:50 | -50.65837 | -72.23581 | 15058 ft | 429 kts | 146° |
| 2026-04-21 20:50 | -50.68304 | -72.20911 | 15395 ft | 431 kts | 146° |
| 2026-04-21 20:51 | -50.70767 | -72.18239 | 15836 ft | 430 kts | 146° |
| 2026-04-21 20:51 | -50.73225 | -72.15569 | 16208 ft | 430 kts | 146° |
| 2026-04-21 20:51 | -50.75762 | -72.13070 | 16561 ft | 430 kts | 152° |
| 2026-04-21 20:51 | -50.78413 | -72.10888 | 16911 ft | 429 kts | 159° |
| 2026-04-21 20:52 | -50.81148 | -72.09198 | 17267 ft | 427 kts | 165° |
| 2026-04-21 20:52 | -50.83984 | -72.07840 | 17637 ft | 425 kts | 169° |
| 2026-04-21 20:52 | -50.86848 | -72.06663 | 17977 ft | 424 kts | 171° |
| 2026-04-21 20:52 | -50.89716 | -72.05564 | 18330 ft | 424 kts | 171° |
| 2026-04-21 20:53 | -50.92579 | -72.04458 | 18662 ft | 424 kts | 171° |
| 2026-04-21 20:53 | -50.95437 | -72.03335 | 19021 ft | 424 kts | 171° |
| 2026-04-21 20:53 | -50.98298 | -72.02177 | 19389 ft | 423 kts | 170° |
| 2026-04-21 20:53 | -51.01147 | -72.01012 | 19763 ft | 423 kts | 170° |
| 2026-04-21 20:54 | -51.03992 | -71.99833 | 20116 ft | 423 kts | 169° |
| 2026-04-21 20:54 | -51.06831 | -71.98622 | 20345 ft | 424 kts | 169° |
| 2026-04-21 20:54 | -51.09648 | -71.97428 | 20431 ft | 421 kts | 170° |
| 2026-04-21 20:54 | -51.12457 | -71.96259 | 20457 ft | 417 kts | 170° |
| 2026-04-21 20:55 | -51.15270 | -71.95096 | 20458 ft | 419 kts | 169° |
| 2026-04-21 20:55 | -51.18090 | -71.93910 | 20462 ft | 420 kts | 169° |
| 2026-04-21 20:55 | -51.20916 | -71.92710 | 20467 ft | 420 kts | 169° |
| 2026-04-21 20:55 | -51.23738 | -71.91509 | 20468 ft | 420 kts | 169° |
| 2026-04-21 20:56 | -51.26567 | -71.90304 | 20467 ft | 421 kts | 169° |
| 2026-04-21 20:56 | -51.29401 | -71.89131 | 20474 ft | 421 kts | 170° |
| 2026-04-21 20:56 | -51.32209 | -71.87969 | 20472 ft | 427 kts | 169° |
| 2026-04-21 20:56 | -51.35121 | -71.86751 | 20502 ft | 437 kts | 169° |
| 2026-04-21 20:57 | -51.38092 | -71.85502 | 20489 ft | 447 kts | 169° |
| 2026-04-21 20:57 | -51.41128 | -71.84226 | 20480 ft | 456 kts | 169° |
| 2026-04-21 20:57 | -51.44226 | -71.82925 | 20480 ft | 463 kts | 169° |
| 2026-04-21 20:57 | -51.47355 | -71.81615 | 20482 ft | 466 kts | 169° |
| 2026-04-21 20:58 | -51.50489 | -71.80300 | 20473 ft | 466 kts | 169° |
| 2026-04-21 20:58 | -51.53618 | -71.78950 | 20475 ft | 466 kts | 168° |
| 2026-04-21 20:58 | -51.56699 | -71.77616 | 20471 ft | 466 kts | 169° |
| 2026-04-21 20:58 | -51.59836 | -71.76288 | 20475 ft | 467 kts | 169° |
| 2026-04-21 20:59 | -51.62966 | -71.74856 | 20476 ft | 470 kts | 162° |
| 2026-04-21 20:59 | -51.65983 | -71.72775 | 20473 ft | 472 kts | 158° |
| 2026-04-21 20:59 | -51.68956 | -71.70518 | 20470 ft | 473 kts | 154° |
| 2026-04-21 20:59 | -51.71795 | -71.67823 | 20477 ft | 474 kts | 146° |
| 2026-04-21 21:00 | -51.74464 | -71.64697 | 20473 ft | 474 kts | 141° |
| 2026-04-21 21:00 | -51.77029 | -71.61358 | 20479 ft | 474 kts | 139° |
| 2026-04-21 21:00 | -51.79561 | -71.57942 | 20484 ft | 475 kts | 139° |
| 2026-04-21 21:00 | -51.82054 | -71.54564 | 20493 ft | 474 kts | 139° |
| 2026-04-21 21:01 | -51.84590 | -71.51159 | 20486 ft | 473 kts | 140° |
| 2026-04-21 21:01 | -51.87138 | -71.47798 | 20483 ft | 473 kts | 140° |
| 2026-04-21 21:01 | -51.89701 | -71.44443 | 20486 ft | 474 kts | 140° |
| 2026-04-21 21:01 | -51.92269 | -71.41088 | 20486 ft | 474 kts | 140° |
| 2026-04-21 21:02 | -51.94834 | -71.37741 | 20485 ft | 474 kts | 141° |
| 2026-04-21 21:02 | -51.97545 | -71.34725 | 20484 ft | 473 kts | 150° |
| 2026-04-21 21:02 | -52.00409 | -71.32079 | 20487 ft | 474 kts | 152° |
| 2026-04-21 21:02 | -52.03310 | -71.29709 | 20488 ft | 473 kts | 159° |
| 2026-04-21 21:03 | -52.06380 | -71.27830 | 20490 ft | 471 kts | 165° |
| 2026-04-21 21:03 | -52.09516 | -71.26324 | 20492 ft | 469 kts | 168° |
| 2026-04-21 21:03 | -52.12671 | -71.24982 | 20494 ft | 469 kts | 169° |
| 2026-04-21 21:03 | -52.15830 | -71.23687 | 20493 ft | 469 kts | 169° |
| 2026-04-21 21:04 | -52.18989 | -71.22368 | 20493 ft | 469 kts | 169° |
| 2026-04-21 21:04 | -52.22140 | -71.21004 | 20490 ft | 469 kts | 168° |
| 2026-04-21 21:04 | -52.25293 | -71.19609 | 20498 ft | 469 kts | 168° |
| 2026-04-21 21:04 | -52.28434 | -71.18182 | 20493 ft | 468 kts | 168° |
| 2026-04-21 21:05 | -52.31530 | -71.16762 | 20488 ft | 468 kts | 168° |
| 2026-04-21 21:05 | -52.34654 | -71.15325 | 20490 ft | 467 kts | 168° |
| 2026-04-21 21:05 | -52.37783 | -71.13884 | 20490 ft | 467 kts | 168° |
| 2026-04-21 21:05 | -52.40898 | -71.12486 | 19772 ft | 466 kts | 169° |
| 2026-04-21 21:06 | -52.44026 | -71.11093 | 19037 ft | 464 kts | 168° |
| 2026-04-21 21:06 | -52.47115 | -71.09706 | 18530 ft | 455 kts | 168° |
| 2026-04-21 21:06 | -52.50118 | -71.08357 | 18249 ft | 442 kts | 168° |
| 2026-04-21 21:06 | -52.53072 | -71.07027 | 17601 ft | 439 kts | 167° |
| 2026-04-21 21:07 | -52.56000 | -71.05683 | 17036 ft | 432 kts | 167° |
| 2026-04-21 21:07 | -52.58837 | -71.04376 | 16494 ft | 425 kts | 167° |
| 2026-04-21 21:07 | -52.61667 | -71.03075 | 15938 ft | 419 kts | 167° |
| 2026-04-21 21:07 | -52.64459 | -71.01795 | 15409 ft | 413 kts | 167° |
| 2026-04-21 21:08 | -52.67203 | -71.00542 | 14854 ft | 407 kts | 167° |
| 2026-04-21 21:08 | -52.69916 | -70.99313 | 14335 ft | 401 kts | 167° |
| 2026-04-21 21:08 | -52.72588 | -70.98109 | 13803 ft | 396 kts | 167° |
| 2026-04-21 21:08 | -52.75228 | -70.96916 | 13269 ft | 391 kts | 167° |
| 2026-04-21 21:09 | -52.77757 | -70.95763 | 12706 ft | 385 kts | 167° |
| 2026-04-21 21:09 | -52.80316 | -70.94563 | 12120 ft | 381 kts | 165° |
| 2026-04-21 21:09 | -52.82706 | -70.92866 | 11514 ft | 378 kts | 154° |
| 2026-04-21 21:09 | -52.85003 | -70.90781 | 10941 ft | 374 kts | 148° |
| 2026-04-21 21:10 | -52.87131 | -70.88352 | 10396 ft | 369 kts | 142° |
| 2026-04-21 21:10 | -52.89102 | -70.85682 | 9866 ft | 364 kts | 138° |
| 2026-04-21 21:10 | -52.90973 | -70.82898 | 9386 ft | 355 kts | 136° |
| 2026-04-21 21:10 | -52.92704 | -70.80205 | 8639 ft | 331 kts | 135° |
| 2026-04-21 21:11 | -52.94344 | -70.77611 | 8313 ft | 320 kts | 136° |
| 2026-04-21 21:11 | -52.95924 | -70.75114 | 8110 ft | 311 kts | 136° |
| 2026-04-21 21:11 | -52.97490 | -70.72662 | 7796 ft | 308 kts | 136° |
| 2026-04-21 21:11 | -52.99050 | -70.70244 | 7513 ft | 305 kts | 136° |
| 2026-04-21 21:12 | -53.00582 | -70.67881 | 7192 ft | 305 kts | 136° |
| 2026-04-21 21:12 | -53.02134 | -70.65506 | 6912 ft | 303 kts | 136° |
| 2026-04-21 21:12 | -53.03681 | -70.63147 | 6647 ft | 301 kts | 136° |
| 2026-04-21 21:12 | -53.05264 | -70.60899 | 6387 ft | 299 kts | 148° |
| 2026-04-21 21:13 | -53.07132 | -70.59864 | 6127 ft | 274 kts | 181° |
| 2026-04-21 21:13 | -53.08934 | -70.60365 | 6053 ft | 258 kts | 200° |
| 2026-04-21 21:13 | -53.10569 | -70.61426 | 6027 ft | 246 kts | 218° |
| 2026-04-21 21:13 | -53.11640 | -70.63421 | 6003 ft | 221 kts | 254° |
| 2026-04-21 21:14 | -53.11735 | -70.65633 | 5789 ft | 175 kts | 292° |
| 2026-04-21 21:14 | -53.11300 | -70.67445 | 5099 ft | 173 kts | 300° |
| 2026-04-21 21:14 | -53.10745 | -70.69243 | 4399 ft | 174 kts | 302° |
| 2026-04-21 21:14 | -53.10154 | -70.70970 | 3860 ft | 166 kts | 304° |
| 2026-04-21 21:15 | -53.09524 | -70.72490 | 3376 ft | 155 kts | 310° |
| 2026-04-21 21:15 | -53.08803 | -70.73796 | 2878 ft | 152 kts | 315° |
| 2026-04-21 21:15 | -53.08030 | -70.74977 | 2405 ft | 151 kts | 317° |
| 2026-04-21 21:15 | -53.07229 | -70.76122 | 1957 ft | 153 kts | 318° |
| 2026-04-21 21:16 | -53.06406 | -70.77274 | 1510 ft | 156 kts | 319° |
| 2026-04-21 21:16 | -53.05597 | -70.78434 | 1017 ft | 155 kts | 319° |
| 2026-04-21 21:16 | -53.04821 | -70.79557 | 752 ft | 139 kts | 321° |
| 2026-04-21 21:16 | -53.04129 | -70.80537 | 591 ft | 127 kts | 320° |
| 2026-04-21 21:17 | -53.03462 | -70.81520 | 579 ft | 126 kts | 321° |
| 2026-04-21 21:17 | -53.02791 | -70.82465 | 520 ft | 129 kts | 317° |
| 2026-04-21 21:17 | -53.02117 | -70.83450 | 359 ft | 128 kts | 320° |
| 2026-04-21 21:17 | -53.01459 | -70.84407 | 202 ft | 123 kts | 320° |
| 2026-04-21 21:18 | -53.00844 | -70.85288 | 134 ft | 106 kts | 319° |
| 2026-04-21 21:18 | -53.00401 | -70.85929 | 132 ft | 61 kts | 319° |
| 2026-04-21 21:18 | -53.00211 | -70.86207 | 134 ft | 20 kts | 319° |
| 2026-04-21 21:18 | -53.00170 | -70.86257 | 134 ft | 1 kts | 350° |
| 2026-04-21 21:19 | -53.00162 | -70.86279 | 137 ft | 7 kts | 193° |
| 2026-04-21 21:19 | -53.00214 | -70.86209 | 134 ft | 11 kts | 130° |
| 2026-04-21 21:19 | -53.00265 | -70.86095 | 133 ft | 14 kts | 107° |
| 2026-04-21 21:19 | -53.00267 | -70.85920 | 135 ft | 17 kts | 88° |
| 2026-04-21 21:20 | -53.00265 | -70.85718 | 134 ft | 18 kts | 89° |
| 2026-04-21 21:20 | -53.00263 | -70.85538 | 134 ft | 14 kts | 88° |
| 2026-04-21 21:20 | -53.00261 | -70.85396 | 134 ft | 11 kts | 88° |
| 2026-04-21 21:20 | -53.00260 | -70.85267 | 135 ft | 12 kts | 89° |
| 2026-04-21 21:21 | -53.00258 | -70.85118 | 137 ft | 15 kts | 88° |
| 2026-04-21 21:21 | -53.00254 | -70.84924 | 138 ft | 19 kts | 89° |
| 2026-04-21 21:21 | -53.00264 | -70.84762 | 137 ft | 13 kts | 121° |
| 2026-04-21 21:21 | -53.00337 | -70.84671 | 137 ft | 14 kts | 147° |
| 2026-04-21 21:22 | -53.00383 | -70.84564 | 137 ft | 11 kts | 92° |
| 2026-04-21 21:22 | -53.00381 | -70.84454 | 137 ft | 9 kts | 88° |
| 2026-04-21 21:22 | -53.00392 | -70.84373 | 137 ft | 7 kts | 147° |
| 2026-04-21 21:22 | -53.00429 | -70.84365 | 137 ft | 4 kts | 178° |
| 2026-04-21 21:23 | -53.00448 | -70.84364 | 137 ft | 1 kts | 179° |
| 2026-04-21 21:33 | -53.00436 | -70.84365 | 122 ft | 4 kts | 178° |
| 2026-04-21 21:34 | -53.00410 | -70.84364 | 123 ft | 4 kts | 186° |
| 2026-04-21 21:34 | -53.00383 | -70.84355 | 124 ft | 4 kts | 200° |
| 2026-04-21 21:34 | -53.00366 | -70.84340 | 124 ft | 1 kts | 213° |
| 2026-04-21 21:34 | -53.00363 | -70.84337 | 124 ft | 0 kts | 213° |
| 2026-04-21 21:40 | -53.00374 | -70.84364 | 127 ft | 4 kts | 246° |
| 2026-04-21 21:40 | -53.00381 | -70.84416 | 127 ft | 6 kts | 265° |
| 2026-04-21 21:40 | -53.00383 | -70.84493 | 127 ft | 8 kts | 269° |
| 2026-04-21 21:40 | -53.00385 | -70.84595 | 127 ft | 7 kts | 268° |
| 2026-04-21 21:41 | -53.00386 | -70.84687 | 128 ft | 10 kts | 269° |
| 2026-04-21 21:41 | -53.00400 | -70.84811 | 129 ft | 12 kts | 266° |
| 2026-04-21 21:41 | -53.00401 | -70.84963 | 129 ft | 14 kts | 271° |
| 2026-04-21 21:41 | -53.00409 | -70.85110 | 131 ft | 11 kts | 245° |
| 2026-04-21 21:42 | -53.00465 | -70.85193 | 133 ft | 11 kts | 206° |
| 2026-04-21 21:42 | -53.00535 | -70.85256 | 132 ft | 12 kts | 209° |
| 2026-04-21 21:42 | -53.00610 | -70.85326 | 133 ft | 14 kts | 208° |
| 2026-04-21 21:42 | -53.00707 | -70.85413 | 133 ft | 18 kts | 206° |
| 2026-04-21 21:43 | -53.00828 | -70.85320 | 130 ft | 22 kts | 141° |
| 2026-04-21 21:43 | -53.00951 | -70.85147 | 128 ft | 24 kts | 138° |
| 2026-04-21 21:43 | -53.01077 | -70.84962 | 130 ft | 25 kts | 139° |
| 2026-04-21 21:43 | -53.01208 | -70.84772 | 131 ft | 25 kts | 139° |
| 2026-04-21 21:44 | -53.01308 | -70.84601 | 133 ft | 15 kts | 122° |
| 2026-04-21 21:44 | -53.01341 | -70.84542 | 133 ft | 2 kts | 192° |
| 2026-04-21 21:44 | -53.01334 | -70.84590 | 133 ft | 8 kts | 333° |
| 2026-04-21 21:44 | -53.01301 | -70.84628 | 133 ft | 0 kts | 319° |
| 2026-04-21 21:45 | -53.01237 | -70.84721 | 131 ft | 40 kts | 319° |
| 2026-04-21 21:45 | -53.01015 | -70.85043 | 132 ft | 86 kts | 319° |
| 2026-04-21 21:45 | -53.00414 | -70.85908 | 157 ft | 137 kts | 323° |
| 2026-04-21 21:45 | -52.99695 | -70.86950 | 704 ft | 134 kts | 320° |
| 2026-04-21 21:46 | -52.98978 | -70.87970 | 1308 ft | 138 kts | 320° |
| 2026-04-21 21:46 | -52.97968 | -70.89349 | 1830 ft | 147 kts | 319° |
| 2026-04-21 21:46 | -52.97098 | -70.90400 | 1897 ft | 164 kts | 336° |
| 2026-04-21 21:46 | -52.95930 | -70.90326 | 1944 ft | 184 kts | 23° |
| 2026-04-21 21:47 | -52.95049 | -70.88724 | 1993 ft | 201 kts | 68° |
| 2026-04-21 21:47 | -52.94856 | -70.87173 | 1975 ft | 215 kts | 81° |
| 2026-04-21 21:47 | -52.94750 | -70.84596 | 2190 ft | 228 kts | 86° |
| 2026-04-21 21:47 | -52.94725 | -70.81948 | 2665 ft | 232 kts | 87° |
| 2026-04-21 21:48 | -52.94873 | -70.79264 | 3073 ft | 241 kts | 108° |
| 2026-04-21 21:48 | -52.95882 | -70.76971 | 3240 ft | 258 kts | 145° |
| 2026-04-21 21:48 | -52.97527 | -70.75664 | 3423 ft | 269 kts | 162° |
| 2026-04-21 21:48 | -52.99330 | -70.74590 | 3627 ft | 281 kts | 161° |
| 2026-04-21 21:49 | -53.01179 | -70.73440 | 3966 ft | 286 kts | 159° |
| 2026-04-21 21:49 | -53.03027 | -70.72173 | 4350 ft | 289 kts | 157° |
| 2026-04-21 21:49 | -53.04838 | -70.70787 | 4746 ft | 291 kts | 154° |
| 2026-04-21 21:49 | -53.06652 | -70.69272 | 5139 ft | 293 kts | 153° |
| 2026-04-21 21:50 | -53.08451 | -70.67683 | 5517 ft | 295 kts | 151° |
| 2026-04-21 21:50 | -53.10257 | -70.66037 | 5918 ft | 296 kts | 151° |
| 2026-04-21 21:50 | -53.12063 | -70.64367 | 6275 ft | 298 kts | 150° |
| 2026-04-21 21:50 | -53.13876 | -70.62676 | 6618 ft | 300 kts | 150° |
| 2026-04-21 21:51 | -53.15705 | -70.60961 | 6961 ft | 303 kts | 150° |
| 2026-04-21 21:51 | -53.17542 | -70.59226 | 7318 ft | 305 kts | 150° |
| 2026-04-21 21:51 | -53.19392 | -70.57472 | 7651 ft | 307 kts | 151° |
| 2026-04-21 21:51 | -53.21258 | -70.55724 | 8001 ft | 308 kts | 151° |
| 2026-04-21 21:52 | -53.23110 | -70.53993 | 8345 ft | 310 kts | 151° |
| 2026-04-21 21:52 | -53.24992 | -70.52226 | 8692 ft | 311 kts | 152° |
| 2026-04-21 21:52 | -53.26881 | -70.50444 | 9023 ft | 313 kts | 152° |
| 2026-04-21 21:52 | -53.28787 | -70.48659 | 9371 ft | 315 kts | 152° |
| 2026-04-21 21:53 | -53.30706 | -70.46874 | 9692 ft | 317 kts | 152° |
| 2026-04-21 21:53 | -53.32670 | -70.45056 | 9772 ft | 330 kts | 152° |
| 2026-04-21 21:53 | -53.34718 | -70.43156 | 9791 ft | 343 kts | 152° |
| 2026-04-21 21:53 | -53.36835 | -70.41158 | 9885 ft | 353 kts | 152° |
| 2026-04-21 21:54 | -53.38979 | -70.39118 | 10153 ft | 356 kts | 152° |
| 2026-04-21 21:54 | -53.41102 | -70.37107 | 10488 ft | 356 kts | 152° |
| 2026-04-21 21:54 | -53.43269 | -70.35075 | 10755 ft | 360 kts | 152° |
| 2026-04-21 21:54 | -53.45471 | -70.33018 | 11025 ft | 363 kts | 152° |
| 2026-04-21 21:55 | -53.47683 | -70.30944 | 11296 ft | 366 kts | 152° |
| 2026-04-21 21:55 | -53.49907 | -70.28816 | 11571 ft | 369 kts | 152° |
| 2026-04-21 21:55 | -53.52149 | -70.26689 | 11846 ft | 372 kts | 152° |
| 2026-04-21 21:55 | -53.54415 | -70.24553 | 12124 ft | 375 kts | 152° |
| 2026-04-21 21:56 | -53.56703 | -70.22398 | 12405 ft | 378 kts | 152° |
| 2026-04-21 21:56 | -53.59000 | -70.20192 | 12688 ft | 382 kts | 152° |
| 2026-04-21 21:56 | -53.61285 | -70.18006 | 12968 ft | 385 kts | 152° |
| 2026-04-21 21:56 | -53.63609 | -70.15802 | 13382 ft | 383 kts | 152° |
| 2026-04-21 21:57 | -53.65939 | -70.13591 | 13621 ft | 386 kts | 152° |
| 2026-04-21 21:57 | -53.68290 | -70.11359 | 13863 ft | 389 kts | 152° |
| 2026-04-21 21:57 | -53.70651 | -70.09091 | 14107 ft | 392 kts | 152° |
| 2026-04-21 21:57 | -53.73025 | -70.06787 | 14357 ft | 395 kts | 152° |
| 2026-04-21 21:58 | -53.75425 | -70.04484 | 14616 ft | 398 kts | 152° |
| 2026-04-21 21:58 | -53.77840 | -70.02170 | 14876 ft | 401 kts | 152° |
| 2026-04-21 21:58 | -53.80274 | -69.99838 | 15141 ft | 403 kts | 152° |
| 2026-04-21 21:58 | -53.82634 | -69.97564 | 15914 ft | 389 kts | 152° |
| 2026-04-21 21:59 | -53.84951 | -69.95315 | 16666 ft | 382 kts | 152° |
| 2026-04-21 21:59 | -53.87266 | -69.93046 | 17003 ft | 387 kts | 152° |
| 2026-04-21 21:59 | -53.89608 | -69.90748 | 17335 ft | 391 kts | 153° |
| 2026-04-21 21:59 | -53.91958 | -69.88475 | 17843 ft | 384 kts | 153° |
| 2026-04-21 22:00 | -53.94263 | -69.86254 | 18398 ft | 378 kts | 153° |
| 2026-04-21 22:00 | -53.96531 | -69.84065 | 18992 ft | 372 kts | 153° |
| 2026-04-21 22:00 | -53.98633 | -69.81569 | 19616 ft | 367 kts | 134° |
| 2026-04-21 22:00 | -54.00245 | -69.78289 | 20247 ft | 358 kts | 120° |
| 2026-04-21 22:01 | -54.01506 | -69.74770 | 20885 ft | 348 kts | 112° |
| 2026-04-21 22:01 | -54.02565 | -69.71127 | 21512 ft | 340 kts | 108° |
| 2026-04-21 22:01 | -54.03500 | -69.67480 | 22107 ft | 334 kts | 105° |
| 2026-04-21 22:01 | -54.04375 | -69.63844 | 22649 ft | 330 kts | 104° |
| 2026-04-21 22:02 | -54.05236 | -69.60176 | 22911 ft | 339 kts | 103° |
| 2026-04-21 22:02 | -54.06106 | -69.56380 | 23001 ft | 352 kts | 104° |
| 2026-04-21 22:02 | -54.07012 | -69.52426 | 22987 ft | 365 kts | 104° |
| 2026-04-21 22:02 | -54.07951 | -69.48338 | 23028 ft | 377 kts | 105° |
| 2026-04-21 22:03 | -54.08924 | -69.44191 | 23051 ft | 388 kts | 107° |
| 2026-04-21 22:03 | -54.09957 | -69.39876 | 23057 ft | 398 kts | 107° |
| 2026-04-21 22:03 | -54.11019 | -69.35457 | 23061 ft | 408 kts | 107° |
| 2026-04-21 22:03 | -54.12102 | -69.30938 | 23060 ft | 417 kts | 107° |
| 2026-04-21 22:04 | -54.13204 | -69.26327 | 23055 ft | 422 kts | 107° |
| 2026-04-21 22:04 | -54.14310 | -69.21680 | 23046 ft | 425 kts | 107° |
| 2026-04-21 22:04 | -54.15430 | -69.16967 | 23040 ft | 433 kts | 107° |
| 2026-04-21 22:04 | -54.16587 | -69.12169 | 23031 ft | 441 kts | 108° |
| 2026-04-21 22:05 | -54.17766 | -69.07288 | 23035 ft | 449 kts | 107° |
| 2026-04-21 22:05 | -54.18943 | -69.02309 | 23045 ft | 456 kts | 107° |
| 2026-04-21 22:05 | -54.20110 | -68.97312 | 23042 ft | 461 kts | 107° |
| 2026-04-21 22:05 | -54.21312 | -68.92223 | 23031 ft | 462 kts | 108° |
| 2026-04-21 22:06 | -54.22522 | -68.87133 | 22895 ft | 465 kts | 107° |
| 2026-04-21 22:06 | -54.23717 | -68.82015 | 22643 ft | 461 kts | 107° |
| 2026-04-21 22:06 | -54.24894 | -68.76945 | 22552 ft | 458 kts | 107° |
| 2026-04-21 22:06 | -54.26080 | -68.71898 | 22511 ft | 458 kts | 107° |
| 2026-04-21 22:07 | -54.27266 | -68.66836 | 22502 ft | 457 kts | 107° |
| 2026-04-21 22:07 | -54.28435 | -68.61782 | 22490 ft | 456 kts | 107° |
| 2026-04-21 22:07 | -54.29597 | -68.56734 | 22500 ft | 456 kts | 107° |
| 2026-04-21 22:07 | -54.30758 | -68.51676 | 22493 ft | 457 kts | 107° |
| 2026-04-21 22:08 | -54.31925 | -68.46685 | 22495 ft | 458 kts | 107° |
| 2026-04-21 22:08 | -54.33099 | -68.41622 | 22493 ft | 457 kts | 107° |
| 2026-04-21 22:08 | -54.34264 | -68.36551 | 22507 ft | 457 kts | 107° |
| 2026-04-21 22:08 | -54.35423 | -68.31467 | 22489 ft | 459 kts | 107° |
| 2026-04-21 22:09 | -54.36572 | -68.26390 | 21770 ft | 458 kts | 107° |
| 2026-04-21 22:09 | -54.37733 | -68.21331 | 21184 ft | 454 kts | 107° |
| 2026-04-21 22:09 | -54.38897 | -68.16318 | 20619 ft | 449 kts | 107° |
| 2026-04-21 22:09 | -54.40025 | -68.11361 | 20115 ft | 442 kts | 107° |
| 2026-04-21 22:10 | -54.41112 | -68.06534 | 19594 ft | 438 kts | 107° |
| 2026-04-21 22:10 | -54.42199 | -68.01678 | 19044 ft | 434 kts | 107° |
| 2026-04-21 22:10 | -54.43274 | -67.96857 | 18488 ft | 430 kts | 107° |
| 2026-04-21 22:10 | -54.44335 | -67.92072 | 17947 ft | 427 kts | 107° |
| 2026-04-21 22:11 | -54.45399 | -67.87332 | 17396 ft | 423 kts | 108° |
| 2026-04-21 22:11 | -54.46460 | -67.82659 | 16912 ft | 416 kts | 108° |
| 2026-04-21 22:11 | -54.47503 | -67.78054 | 16386 ft | 410 kts | 108° |
| 2026-04-21 22:11 | -54.48867 | -67.73788 | 15851 ft | 408 kts | 129° |
| 2026-04-21 22:12 | -54.50978 | -67.70642 | 15343 ft | 399 kts | 152° |
| 2026-04-21 22:12 | -54.53406 | -67.68416 | 14810 ft | 392 kts | 158° |
| 2026-04-21 22:12 | -54.55882 | -67.66735 | 14296 ft | 384 kts | 167° |
| 2026-04-21 22:12 | -54.58456 | -67.65742 | 13776 ft | 371 kts | 175° |
| 2026-04-21 22:13 | -54.61004 | -67.65203 | 12800 ft | 368 kts | 179° |
| 2026-04-21 22:13 | -54.63536 | -67.64907 | 11954 ft | 362 kts | 181° |
| 2026-04-21 22:13 | -54.66033 | -67.64702 | 11128 ft | 357 kts | 181° |
| 2026-04-21 22:13 | -54.68499 | -67.64512 | 10313 ft | 353 kts | 180° |
| 2026-04-21 22:14 | -54.70944 | -67.64306 | 9541 ft | 349 kts | 180° |
| 2026-04-21 22:14 | -54.73356 | -67.64075 | 8705 ft | 346 kts | 179° |
| 2026-04-21 22:14 | -54.75698 | -67.63843 | 7970 ft | 333 kts | 179° |
| 2026-04-21 22:14 | -54.77932 | -67.63678 | 7144 ft | 309 kts | 189° |
| 2026-04-21 22:15 | -54.79883 | -67.64668 | 6341 ft | 284 kts | 220° |
| 2026-04-21 22:15 | -54.81363 | -67.66770 | 5673 ft | 269 kts | 238° |
| 2026-04-21 22:15 | -54.82097 | -67.69492 | 5481 ft | 237 kts | 268° |
| 2026-04-21 22:15 | -54.82263 | -67.72223 | 5409 ft | 220 kts | 272° |
| 2026-04-21 22:16 | -54.82332 | -67.74795 | 5382 ft | 207 kts | 275° |
| 2026-04-21 22:16 | -54.82391 | -67.77238 | 5215 ft | 197 kts | 276° |
| 2026-04-21 22:16 | -54.82457 | -67.79504 | 4968 ft | 183 kts | 276° |
| 2026-04-21 22:16 | -54.82501 | -67.81760 | 4796 ft | 194 kts | 277° |
| 2026-04-21 22:17 | -54.82548 | -67.84099 | 4659 ft | 194 kts | 276° |
| 2026-04-21 22:17 | -54.82616 | -67.86427 | 4586 ft | 195 kts | 275° |
| 2026-04-21 22:17 | -54.82699 | -67.88769 | 4552 ft | 195 kts | 273° |
| 2026-04-21 22:17 | -54.82812 | -67.91038 | 4584 ft | 178 kts | 274° |
| 2026-04-21 22:18 | -54.82921 | -67.93053 | 4600 ft | 162 kts | 275° |
| 2026-04-21 22:18 | -54.82996 | -67.94923 | 4585 ft | 154 kts | 275° |
| 2026-04-21 22:18 | -54.83066 | -67.96768 | 4527 ft | 151 kts | 276° |
| 2026-04-21 22:18 | -54.83131 | -67.98582 | 4461 ft | 151 kts | 276° |
| 2026-04-21 22:19 | -54.83169 | -68.00410 | 4220 ft | 156 kts | 276° |
| 2026-04-21 22:19 | -54.83273 | -68.02170 | 3972 ft | 143 kts | 270° |
| 2026-04-21 22:19 | -54.83428 | -68.03888 | 3560 ft | 146 kts | 270° |
| 2026-04-21 22:19 | -54.83498 | -68.05641 | 3138 ft | 146 kts | 273° |
| 2026-04-21 22:20 | -54.83519 | -68.07382 | 2890 ft | 143 kts | 274° |
| 2026-04-21 22:20 | -54.83545 | -68.09128 | 2574 ft | 146 kts | 272° |
| 2026-04-21 22:20 | -54.83582 | -68.10911 | 2260 ft | 148 kts | 270° |
| 2026-04-21 22:20 | -54.83630 | -68.12699 | 1977 ft | 148 kts | 268° |
| 2026-04-21 22:21 | -54.83691 | -68.14444 | 1798 ft | 146 kts | 266° |
| 2026-04-21 22:21 | -54.83758 | -68.16215 | 1616 ft | 146 kts | 264° |
| 2026-04-21 22:21 | -54.83880 | -68.17943 | 1446 ft | 145 kts | 263° |
| 2026-04-21 22:21 | -54.83960 | -68.19669 | 1228 ft | 141 kts | 267° |
| 2026-04-21 22:22 | -54.84021 | -68.21332 | 976 ft | 134 kts | 269° |
| 2026-04-21 22:22 | -54.84073 | -68.22896 | 733 ft | 127 kts | 268° |
| 2026-04-21 22:22 | -54.84142 | -68.24372 | 499 ft | 118 kts | 270° |
| 2026-04-21 22:22 | -54.84187 | -68.25737 | 318 ft | 111 kts | 270° |
| 2026-04-21 22:23 | -54.84241 | -68.27063 | 176 ft | 109 kts | 268° |
| 2026-04-21 22:23 | -54.84287 | -68.28360 | 91 ft | 104 kts | 269° |
| 2026-04-21 22:23 | -54.84327 | -68.29485 | 85 ft | 82 kts | 266° |
| 2026-04-21 22:23 | -54.84359 | -68.30318 | 80 ft | 53 kts | 266° |
| 2026-04-21 22:24 | -54.84378 | -68.30765 | 54 ft | 29 kts | 266° |
| 2026-04-21 22:24 | -54.84354 | -68.30945 | 85 ft | 13 kts | 330° |
| 2026-04-21 22:24 | -54.84272 | -68.30964 | 84 ft | 9 kts | 356° |
| 2026-04-21 22:24 | -54.84217 | -68.30969 | 82 ft | 7 kts | 354° |
| 2026-04-21 22:25 | -54.84206 | -68.30972 | 82 ft | 0 kts | 352° |
| 2026-04-21 22:25 | -54.84200 | -68.30973 | 82 ft | 4 kts | 353° |
| 2026-04-21 22:25 | -54.84152 | -68.30982 | 86 ft | 10 kts | 355° |
| 2026-04-21 22:25 | -54.84111 | -68.30988 | 84 ft | 4 kts | 352° |
| 2026-04-21 22:26 | -54.84092 | -68.31019 | 82 ft | 4 kts | 283° |
| 2026-04-21 22:26 | -54.84092 | -68.31073 | 82 ft | 5 kts | 268° |
| 2026-04-21 22:26 | -54.84093 | -68.31138 | 83 ft | 6 kts | 267° |
| 2026-04-21 22:26 | -54.84096 | -68.31213 | 82 ft | 7 kts | 269° |
| 2026-04-21 22:27 | -54.84077 | -68.31273 | 82 ft | 5 kts | 336° |
| 2026-04-21 22:27 | -54.84047 | -68.31264 | 83 ft | 4 kts | 20° |
| 2026-04-21 22:27 | -54.84033 | -68.31256 | 83 ft | 1 kts | 20° |
| 2026-04-21 22:27 | -54.84027 | -68.31251 | 84 ft | 0 kts | 20° |